sensor_id;sensor_type;location;lat;lon;timestamp;pressure;altitude;pressure_sealevel;temperature;humidity
70015;BME280;57358;51.094;6.760;2023-05-12T00:00:46;100960.88;;;12.51;100.00
70015;BME280;57358;51.094;6.760;2023-05-12T00:03:13;100992.09;;;12.73;100.00
70015;BME280;57358;51.094;6.760;2023-05-12T00:05:39;100955.34;;;12.55;100.00
70015;BME280;57358;51.094;6.760;2023-05-12T00:08:06;100996.34;;;12.75;100.00
70015;BME280;57358;51.094;6.760;2023-05-12T00:10:32;100993.97;;;12.71;100.00
70015;BME280;57358;51.094;6.760;2023-05-12T00:13:01;100961.63;;;12.53;100.00
70015;BME280;57358;51.094;6.760;2023-05-12T00:15:27;100982.22;;;12.76;100.00
70015;BME280;57358;51.094;6.760;2023-05-12T00:17:54;100983.09;;;12.77;100.00
70015;BME280;57358;51.094;6.760;2023-05-12T00:20:20;100926.53;;;12.52;100.00
70015;BME280;57358;51.094;6.760;2023-05-12T00:22:47;100953.69;;;12.69;100.00
70015;BME280;57358;51.094;6.760;2023-05-12T00:25:13;100969.28;;;12.88;100.00
70015;BME280;57358;51.094;6.760;2023-05-12T00:27:40;100918.56;;;12.54;100.00
70015;BME280;57358;51.094;6.760;2023-05-12T00:30:07;100898.81;;;12.31;100.00
70015;BME280;57358;51.094;6.760;2023-05-12T00:32:33;100921.28;;;12.52;100.00
70015;BME280;57358;51.094;6.760;2023-05-12T00:35:00;100968.13;;;12.77;100.00
70015;BME280;57358;51.094;6.760;2023-05-12T00:37:26;100964.19;;;12.85;100.00
70015;BME280;57358;51.094;6.760;2023-05-12T00:39:53;100947.94;;;12.62;100.00
70015;BME280;57358;51.094;6.760;2023-05-12T00:42:20;100969.16;;;12.75;100.00
70015;BME280;57358;51.094;6.760;2023-05-12T00:44:46;100973.88;;;12.84;100.00
70015;BME280;57358;51.094;6.760;2023-05-12T00:47:13;100970.06;;;12.90;100.00
70015;BME280;57358;51.094;6.760;2023-05-12T00:49:41;100966.91;;;12.99;100.00
70015;BME280;57358;51.094;6.760;2023-05-12T00:52:08;100963.31;;;13.00;100.00
70015;BME280;57358;51.094;6.760;2023-05-12T00:54:35;100911.47;;;12.70;100.00
70015;BME280;57358;51.094;6.760;2023-05-12T00:57:03;100951.94;;;13.00;100.00
70015;BME280;57358;51.094;6.760;2023-05-12T00:59:29;100890.09;;;12.61;100.00
70015;BME280;57358;51.094;6.760;2023-05-12T01:01:56;100946.38;;;13.04;100.00
70015;BME280;57358;51.094;6.760;2023-05-12T01:04:22;100904.66;;;12.82;100.00
70015;BME280;57358;51.094;6.760;2023-05-12T01:09:19;100782.72;;;12.05;100.00
70015;BME280;57358;51.094;6.760;2023-05-12T01:11:46;100883.22;;;12.58;100.00
70015;BME280;57358;51.094;6.760;2023-05-12T01:14:12;100947.50;;;13.00;100.00
70015;BME280;57358;51.094;6.760;2023-05-12T01:16:42;100909.19;;;12.64;100.00
70015;BME280;57358;51.094;6.760;2023-05-12T01:19:17;100943.09;;;13.01;100.00
70015;BME280;57358;51.094;6.760;2023-05-12T01:21:44;100946.47;;;13.03;100.00
70015;BME280;57358;51.094;6.760;2023-05-12T01:24:11;100771.25;;;12.06;100.00
70015;BME280;57358;51.094;6.760;2023-05-12T01:26:39;100911.28;;;12.89;100.00
70015;BME280;57358;51.094;6.760;2023-05-12T01:29:06;100945.19;;;13.10;100.00
70015;BME280;57358;51.094;6.760;2023-05-12T01:31:33;100713.78;;;11.68;100.00
70015;BME280;57358;51.094;6.760;2023-05-12T01:33:59;100919.66;;;12.96;100.00
70015;BME280;57358;51.094;6.760;2023-05-12T01:36:26;100932.47;;;13.02;100.00
70015;BME280;57358;51.094;6.760;2023-05-12T01:38:53;100939.22;;;12.92;100.00
70015;BME280;57358;51.094;6.760;2023-05-12T01:41:20;100937.72;;;13.02;100.00
70015;BME280;57358;51.094;6.760;2023-05-12T01:43:46;100763.47;;;12.05;100.00
70015;BME280;57358;51.094;6.760;2023-05-12T01:46:13;100919.88;;;13.07;100.00
70015;BME280;57358;51.094;6.760;2023-05-12T01:48:39;100914.41;;;13.10;100.00
70015;BME280;57358;51.094;6.760;2023-05-12T01:51:06;100900.94;;;13.01;100.00
70015;BME280;57358;51.094;6.760;2023-05-12T01:53:33;100914.03;;;13.02;100.00
70015;BME280;57358;51.094;6.760;2023-05-12T01:56:00;100913.84;;;13.05;100.00
70015;BME280;57358;51.094;6.760;2023-05-12T01:58:26;100895.56;;;13.02;100.00
70015;BME280;57358;51.094;6.760;2023-05-12T02:00:55;100853.19;;;12.76;100.00
70015;BME280;57358;51.094;6.760;2023-05-12T02:03:21;100898.03;;;13.05;100.00
70015;BME280;57358;51.094;6.760;2023-05-12T02:05:48;100902.91;;;12.97;100.00
70015;BME280;57358;51.094;6.760;2023-05-12T02:08:14;100911.66;;;12.97;100.00
70015;BME280;57358;51.094;6.760;2023-05-12T02:10:41;100871.97;;;12.70;100.00
70015;BME280;57358;51.094;6.760;2023-05-12T02:13:07;100835.78;;;12.44;100.00
70015;BME280;57358;51.094;6.760;2023-05-12T02:15:34;100668.09;;;11.55;100.00
70015;BME280;57358;51.094;6.760;2023-05-12T02:18:00;100906.66;;;12.93;100.00
70015;BME280;57358;51.094;6.760;2023-05-12T02:20:29;100836.38;;;12.49;100.00
70015;BME280;57358;51.094;6.760;2023-05-12T02:22:55;100915.34;;;12.95;100.00
70015;BME280;57358;51.094;6.760;2023-05-12T02:25:22;100895.19;;;12.94;100.00
70015;BME280;57358;51.094;6.760;2023-05-12T02:27:48;100914.25;;;13.13;100.00
70015;BME280;57358;51.094;6.760;2023-05-12T02:30:14;100873.88;;;12.83;100.00
70015;BME280;57358;51.094;6.760;2023-05-12T02:32:41;100872.66;;;12.74;100.00
70015;BME280;57358;51.094;6.760;2023-05-12T02:35:08;100929.47;;;13.08;100.00
70015;BME280;57358;51.094;6.760;2023-05-12T02:37:34;100936.53;;;13.08;100.00
70015;BME280;57358;51.094;6.760;2023-05-12T02:40:01;100953.13;;;12.94;100.00
70015;BME280;57358;51.094;6.760;2023-05-12T02:42:38;100937.16;;;12.97;100.00
70015;BME280;57358;51.094;6.760;2023-05-12T02:45:06;100939.03;;;12.95;100.00
70015;BME280;57358;51.094;6.760;2023-05-12T02:47:32;100943.63;;;12.91;100.00
70015;BME280;57358;51.094;6.760;2023-05-12T02:49:59;100901.34;;;12.78;100.00
70015;BME280;57358;51.094;6.760;2023-05-12T02:52:25;100923.41;;;12.92;100.00
70015;BME280;57358;51.094;6.760;2023-05-12T02:54:51;100938.53;;;12.88;100.00
70015;BME280;57358;51.094;6.760;2023-05-12T02:57:18;100933.47;;;12.85;100.00
70015;BME280;57358;51.094;6.760;2023-05-12T02:59:44;100922.31;;;12.80;100.00
70015;BME280;57358;51.094;6.760;2023-05-12T03:02:11;100847.31;;;12.57;100.00
70015;BME280;57358;51.094;6.760;2023-05-12T03:04:39;100927.38;;;12.99;100.00
70015;BME280;57358;51.094;6.760;2023-05-12T03:07:10;100931.06;;;13.11;100.00
70015;BME280;57358;51.094;6.760;2023-05-12T03:09:36;100934.81;;;13.07;100.00
70015;BME280;57358;51.094;6.760;2023-05-12T03:12:03;100934.94;;;13.05;100.00
70015;BME280;57358;51.094;6.760;2023-05-12T03:14:29;100952.25;;;13.09;100.00
70015;BME280;57358;51.094;6.760;2023-05-12T03:16:56;100931.94;;;13.11;100.00
70015;BME280;57358;51.094;6.760;2023-05-12T03:19:22;100934.19;;;13.17;100.00
70015;BME280;57358;51.094;6.760;2023-05-12T03:21:48;100930.88;;;13.14;100.00
70015;BME280;57358;51.094;6.760;2023-05-12T03:24:15;100935.88;;;13.18;100.00
70015;BME280;57358;51.094;6.760;2023-05-12T03:26:41;100933.84;;;13.24;100.00
70015;BME280;57358;51.094;6.760;2023-05-12T03:29:08;100937.59;;;13.20;100.00
70015;BME280;57358;51.094;6.760;2023-05-12T03:31:34;100924.88;;;13.12;100.00
70015;BME280;57358;51.094;6.760;2023-05-12T03:34:01;100931.84;;;13.13;100.00
70015;BME280;57358;51.094;6.760;2023-05-12T03:36:28;100885.31;;;12.97;100.00
70015;BME280;57358;51.094;6.760;2023-05-12T03:38:54;100910.94;;;13.10;100.00
70015;BME280;57358;51.094;6.760;2023-05-12T03:41:20;100926.81;;;13.08;100.00
70015;BME280;57358;51.094;6.760;2023-05-12T03:43:47;100932.47;;;13.02;100.00
70015;BME280;57358;51.094;6.760;2023-05-12T03:46:13;100907.16;;;12.69;100.00
70015;BME280;57358;51.094;6.760;2023-05-12T03:48:40;100901.09;;;12.53;100.00
70015;BME280;57358;51.094;6.760;2023-05-12T03:51:06;100945.91;;;12.67;100.00
70015;BME280;57358;51.094;6.760;2023-05-12T03:53:33;100938.88;;;12.82;100.00
70015;BME280;57358;51.094;6.760;2023-05-12T03:56:03;100935.72;;;12.91;100.00
70015;BME280;57358;51.094;6.760;2023-05-12T03:58:30;100944.31;;;12.95;100.00
70015;BME280;57358;51.094;6.760;2023-05-12T04:00:57;100892.59;;;12.78;100.00
70015;BME280;57358;51.094;6.760;2023-05-12T04:03:23;100930.13;;;13.12;100.00
70015;BME280;57358;51.094;6.760;2023-05-12T04:05:49;100936.81;;;13.03;100.00
70015;BME280;57358;51.094;6.760;2023-05-12T04:08:16;100887.25;;;12.80;100.00
70015;BME280;57358;51.094;6.760;2023-05-12T04:10:42;100755.47;;;12.06;100.00
70015;BME280;57358;51.094;6.760;2023-05-12T04:13:09;100889.44;;;12.87;100.00
70015;BME280;57358;51.094;6.760;2023-05-12T04:15:35;100944.75;;;13.17;100.00
70015;BME280;57358;51.094;6.760;2023-05-12T04:18:02;100944.38;;;13.24;100.00
70015;BME280;57358;51.094;6.760;2023-05-12T04:20:29;100929.50;;;13.23;100.00
70015;BME280;57358;51.094;6.760;2023-05-12T04:22:55;100792.25;;;12.38;100.00
70015;BME280;57358;51.094;6.760;2023-05-12T04:25:22;100930.34;;;13.23;100.00
70015;BME280;57358;51.094;6.760;2023-05-12T04:27:48;100914.03;;;13.02;100.00
70015;BME280;57358;51.094;6.760;2023-05-12T04:30:14;100972.31;;;13.26;100.00
70015;BME280;57358;51.094;6.760;2023-05-12T04:32:41;100951.66;;;13.34;100.00
70015;BME280;57358;51.094;6.760;2023-05-12T04:35:08;100890.66;;;12.96;100.00
70015;BME280;57358;51.094;6.760;2023-05-12T04:37:34;100894.81;;;13.00;100.00
70015;BME280;57358;51.094;6.760;2023-05-12T04:40:01;100896.25;;;13.06;100.00
70015;BME280;57358;51.094;6.760;2023-05-12T04:42:27;100906.78;;;13.06;100.00
70015;BME280;57358;51.094;6.760;2023-05-12T04:44:54;100960.84;;;13.43;100.00
70015;BME280;57358;51.094;6.760;2023-05-12T04:47:21;100962.13;;;13.36;100.00
70015;BME280;57358;51.094;6.760;2023-05-12T04:49:48;100968.84;;;13.26;100.00
70015;BME280;57358;51.094;6.760;2023-05-12T04:52:14;100962.50;;;13.14;100.00
70015;BME280;57358;51.094;6.760;2023-05-12T04:54:41;100920.53;;;12.81;100.00
70015;BME280;57358;51.094;6.760;2023-05-12T04:57:07;100994.91;;;13.16;100.00
70015;BME280;57358;51.094;6.760;2023-05-12T04:59:34;100977.66;;;13.10;100.00
70015;BME280;57358;51.094;6.760;2023-05-12T05:02:01;100987.25;;;13.11;100.00
70015;BME280;57358;51.094;6.760;2023-05-12T05:04:27;100926.44;;;12.70;100.00
70015;BME280;57358;51.094;6.760;2023-05-12T05:06:54;100965.50;;;12.77;100.00
70015;BME280;57358;51.094;6.760;2023-05-12T05:09:20;101002.91;;;12.98;100.00
70015;BME280;57358;51.094;6.760;2023-05-12T05:11:47;101003.31;;;13.07;100.00
70015;BME280;57358;51.094;6.760;2023-05-12T05:14:13;100953.66;;;12.85;100.00
70015;BME280;57358;51.094;6.760;2023-05-12T05:16:39;101001.00;;;13.16;100.00
70015;BME280;57358;51.094;6.760;2023-05-12T05:19:08;100808.44;;;12.00;100.00
70015;BME280;57358;51.094;6.760;2023-05-12T05:21:47;100899.00;;;12.58;100.00
70015;BME280;57358;51.094;6.760;2023-05-12T05:24:14;101006.03;;;13.21;100.00
70015;BME280;57358;51.094;6.760;2023-05-12T05:26:40;101009.94;;;13.30;100.00
70015;BME280;57358;51.094;6.760;2023-05-12T05:29:07;101008.31;;;13.27;100.00
70015;BME280;57358;51.094;6.760;2023-05-12T05:31:33;100992.75;;;13.23;100.00
70015;BME280;57358;51.094;6.760;2023-05-12T05:34:00;100942.94;;;13.18;100.00
70015;BME280;57358;51.094;6.760;2023-05-12T05:36:26;100993.41;;;13.26;100.00
70015;BME280;57358;51.094;6.760;2023-05-12T05:38:55;100956.13;;;13.18;100.00
70015;BME280;57358;51.094;6.760;2023-05-12T05:41:22;100996.78;;;13.44;100.00
70015;BME280;57358;51.094;6.760;2023-05-12T05:43:48;101011.41;;;13.64;100.00
70015;BME280;57358;51.094;6.760;2023-05-12T05:46:15;100970.53;;;13.27;100.00
70015;BME280;57358;51.094;6.760;2023-05-12T05:48:41;101008.59;;;13.67;100.00
70015;BME280;57358;51.094;6.760;2023-05-12T05:51:08;101019.53;;;13.75;100.00
70015;BME280;57358;51.094;6.760;2023-05-12T05:53:36;100995.28;;;13.54;100.00
70015;BME280;57358;51.094;6.760;2023-05-12T05:56:03;100866.63;;;12.72;100.00
70015;BME280;57358;51.094;6.760;2023-05-12T05:58:29;101010.28;;;13.54;100.00
70015;BME280;57358;51.094;6.760;2023-05-12T06:00:56;100961.53;;;13.31;100.00
70015;BME280;57358;51.094;6.760;2023-05-12T06:03:22;101033.03;;;13.85;100.00
70015;BME280;57358;51.094;6.760;2023-05-12T06:05:49;101028.88;;;13.81;100.00
70015;BME280;57358;51.094;6.760;2023-05-12T06:08:15;101037.34;;;13.86;100.00
70015;BME280;57358;51.094;6.760;2023-05-12T06:10:41;100974.22;;;13.24;100.00
70015;BME280;57358;51.094;6.760;2023-05-12T06:13:08;101026.75;;;13.57;100.00
70015;BME280;57358;51.094;6.760;2023-05-12T06:15:34;100996.88;;;13.27;100.00
70015;BME280;57358;51.094;6.760;2023-05-12T06:18:01;101036.16;;;13.47;100.00
70015;BME280;57358;51.094;6.760;2023-05-12T06:20:27;101043.56;;;13.41;100.00
70015;BME280;57358;51.094;6.760;2023-05-12T06:22:54;100969.03;;;12.92;100.00
70015;BME280;57358;51.094;6.760;2023-05-12T06:25:20;100989.03;;;13.11;100.00
70015;BME280;57358;51.094;6.760;2023-05-12T06:27:50;101022.75;;;13.20;100.00
70015;BME280;57358;51.094;6.760;2023-05-12T06:30:18;101031.19;;;13.11;100.00
70015;BME280;57358;51.094;6.760;2023-05-12T06:32:44;100992.56;;;12.95;100.00
70015;BME280;57358;51.094;6.760;2023-05-12T06:35:10;101031.50;;;13.21;100.00
70015;BME280;57358;51.094;6.760;2023-05-12T06:37:37;101039.31;;;13.38;100.00
70015;BME280;57358;51.094;6.760;2023-05-12T06:40:04;101033.97;;;13.40;100.00
70015;BME280;57358;51.094;6.760;2023-05-12T06:42:31;101042.78;;;13.69;100.00
70015;BME280;57358;51.094;6.760;2023-05-12T06:44:57;101037.34;;;13.72;100.00
70015;BME280;57358;51.094;6.760;2023-05-12T06:47:25;101047.06;;;14.14;100.00
70015;BME280;57358;51.094;6.760;2023-05-12T06:49:52;101046.03;;;14.17;100.00
70015;BME280;57358;51.094;6.760;2023-05-12T06:52:18;101025.03;;;14.15;100.00
70015;BME280;57358;51.094;6.760;2023-05-12T06:54:46;101046.19;;;14.71;100.00
70015;BME280;57358;51.094;6.760;2023-05-12T06:57:12;101065.03;;;14.80;100.00
70015;BME280;57358;51.094;6.760;2023-05-12T06:59:38;101029.63;;;14.82;100.00
70015;BME280;57358;51.094;6.760;2023-05-12T07:02:05;100962.25;;;14.48;100.00
70015;BME280;57358;51.094;6.760;2023-05-12T07:04:31;101034.38;;;15.04;100.00
70015;BME280;57358;51.094;6.760;2023-05-12T07:06:58;101026.59;;;14.88;100.00
70015;BME280;57358;51.094;6.760;2023-05-12T07:09:24;100954.78;;;14.27;99.92
70015;BME280;57358;51.094;6.760;2023-05-12T07:11:51;101022.16;;;14.89;99.57
70015;BME280;57358;51.094;6.760;2023-05-12T07:14:18;100988.84;;;14.59;98.57
70015;BME280;57358;51.094;6.760;2023-05-12T07:16:44;100947.22;;;14.21;97.19
70015;BME280;57358;51.094;6.760;2023-05-12T07:19:11;100991.59;;;14.58;97.16
70015;BME280;57358;51.094;6.760;2023-05-12T07:21:38;101002.53;;;14.66;96.71
70015;BME280;57358;51.094;6.760;2023-05-12T07:24:05;100965.44;;;14.53;97.15
70015;BME280;57358;51.094;6.760;2023-05-12T07:26:31;100994.78;;;14.63;96.63
70015;BME280;57358;51.094;6.760;2023-05-12T07:28:58;100959.13;;;14.55;96.23
70015;BME280;57358;51.094;6.760;2023-05-12T07:31:25;100943.00;;;14.60;94.61
70015;BME280;57358;51.094;6.760;2023-05-12T07:33:52;100991.88;;;15.07;94.01
70015;BME280;57358;51.094;6.760;2023-05-12T07:36:19;100979.47;;;14.95;93.21
70015;BME280;57358;51.094;6.760;2023-05-12T07:38:47;100938.06;;;14.68;92.27
70015;BME280;57358;51.094;6.760;2023-05-12T07:41:13;100978.72;;;14.93;91.53
70015;BME280;57358;51.094;6.760;2023-05-12T07:43:40;100979.28;;;14.98;92.23
70015;BME280;57358;51.094;6.760;2023-05-12T07:46:06;100980.28;;;15.23;91.32
70015;BME280;57358;51.094;6.760;2023-05-12T07:48:33;100953.09;;;14.81;88.90
70015;BME280;57358;51.094;6.760;2023-05-12T07:51:06;100943.19;;;14.84;89.22
70015;BME280;57358;51.094;6.760;2023-05-12T07:53:33;100972.66;;;15.18;88.53
70015;BME280;57358;51.094;6.760;2023-05-12T07:55:59;100889.13;;;14.63;87.88
70015;BME280;57358;51.094;6.760;2023-05-12T07:58:26;100919.44;;;14.97;88.22
70015;BME280;57358;51.094;6.760;2023-05-12T08:00:52;100899.44;;;14.93;86.95
70015;BME280;57358;51.094;6.760;2023-05-12T08:03:19;100939.59;;;15.38;86.91
70015;BME280;57358;51.094;6.760;2023-05-12T08:05:46;100869.53;;;15.05;85.15
70015;BME280;57358;51.094;6.760;2023-05-12T08:08:12;100931.97;;;15.46;84.25
70015;BME280;57358;51.094;6.760;2023-05-12T08:10:42;100896.22;;;15.28;84.23
70015;BME280;57358;51.094;6.760;2023-05-12T08:13:09;100884.97;;;15.37;82.66
70015;BME280;57358;51.094;6.760;2023-05-12T08:15:36;100906.88;;;15.65;82.82
70015;BME280;57358;51.094;6.760;2023-05-12T08:18:02;100914.69;;;15.66;82.14
70015;BME280;57358;51.094;6.760;2023-05-12T08:20:29;100856.13;;;15.34;82.67
70015;BME280;57358;51.094;6.760;2023-05-12T08:22:56;100902.84;;;15.59;82.01
70015;BME280;57358;51.094;6.760;2023-05-12T08:25:23;100907.09;;;15.49;82.20
70015;BME280;57358;51.094;6.760;2023-05-12T08:27:51;100894.59;;;15.51;82.46
70015;BME280;57358;51.094;6.760;2023-05-12T08:30:17;100920.97;;;15.78;82.07
70015;BME280;57358;51.094;6.760;2023-05-12T08:32:44;100854.09;;;15.50;81.88
70015;BME280;57358;51.094;6.760;2023-05-12T08:35:10;100906.81;;;16.03;80.83
70015;BME280;57358;51.094;6.760;2023-05-12T08:37:37;100903.91;;;15.82;80.90
70015;BME280;57358;51.094;6.760;2023-05-12T08:40:09;100917.78;;;15.73;81.77
70015;BME280;57358;51.094;6.760;2023-05-12T08:42:43;100922.03;;;15.75;81.49
70015;BME280;57358;51.094;6.760;2023-05-12T08:45:10;100900.50;;;15.67;81.28
70015;BME280;57358;51.094;6.760;2023-05-12T08:47:37;100845.66;;;15.20;80.94
70015;BME280;57358;51.094;6.760;2023-05-12T08:50:04;100902.00;;;15.59;81.53
70015;BME280;57358;51.094;6.760;2023-05-12T08:52:32;100909.63;;;15.63;81.61
70015;BME280;57358;51.094;6.760;2023-05-12T08:54:59;100886.78;;;15.75;80.62
70015;BME280;57358;51.094;6.760;2023-05-12T08:57:44;100837.63;;;15.34;80.33
70015;BME280;57358;51.094;6.760;2023-05-12T09:00:14;100821.50;;;15.37;80.13
70015;BME280;57358;51.094;6.760;2023-05-12T09:02:42;100916.56;;;16.03;80.50
70015;BME280;57358;51.094;6.760;2023-05-12T09:05:19;100910.66;;;15.99;81.00
70015;BME280;57358;51.094;6.760;2023-05-12T09:07:48;100809.91;;;15.27;79.92
70015;BME280;57358;51.094;6.760;2023-05-12T09:10:17;100918.13;;;16.05;80.96
70015;BME280;57358;51.094;6.760;2023-05-12T09:13:22;100910.72;;;16.10;80.64
70015;BME280;57358;51.094;6.760;2023-05-12T09:15:52;100882.53;;;16.09;78.87
70015;BME280;57358;51.094;6.760;2023-05-12T09:18:21;100841.09;;;15.97;77.87
70015;BME280;57358;51.094;6.760;2023-05-12T09:20:48;100871.03;;;16.34;77.77
70015;BME280;57358;51.094;6.760;2023-05-12T09:23:19;100850.84;;;16.21;77.40
70015;BME280;57358;51.094;6.760;2023-05-12T09:25:45;100806.72;;;15.84;77.60
70015;BME280;57358;51.094;6.760;2023-05-12T09:28:13;100862.72;;;16.39;76.63
70015;BME280;57358;51.094;6.760;2023-05-12T09:30:40;100866.34;;;16.73;76.33
70015;BME280;57358;51.094;6.760;2023-05-12T09:33:10;100831.50;;;16.91;76.07
70015;BME280;57358;51.094;6.760;2023-05-12T09:35:38;100881.47;;;17.42;74.35
70015;BME280;57358;51.094;6.760;2023-05-12T09:38:09;100797.38;;;16.86;72.39
70015;BME280;57358;51.094;6.760;2023-05-12T09:40:35;100847.91;;;17.07;73.52
70015;BME280;57358;51.094;6.760;2023-05-12T09:43:04;100818.41;;;17.12;74.17
70015;BME280;57358;51.094;6.760;2023-05-12T09:45:35;100844.19;;;17.66;71.87
70015;BME280;57358;51.094;6.760;2023-05-12T09:48:09;100808.75;;;17.45;71.59
70015;BME280;57358;51.094;6.760;2023-05-12T09:50:46;100797.00;;;17.70;70.02
70015;BME280;57358;51.094;6.760;2023-05-12T09:53:14;100780.16;;;17.48;69.85
70015;BME280;57358;51.094;6.760;2023-05-12T09:55:43;100790.16;;;17.56;69.48
70015;BME280;57358;51.094;6.760;2023-05-12T09:58:10;100783.22;;;17.87;69.59
70015;BME280;57358;51.094;6.760;2023-05-12T10:00:37;100752.66;;;18.04;67.98
70015;BME280;57358;51.094;6.760;2023-05-12T10:03:15;100702.47;;;17.90;66.95
70015;BME280;57358;51.094;6.760;2023-05-12T10:05:55;100625.44;;;17.69;65.98
70015;BME280;57358;51.094;6.760;2023-05-12T10:08:25;100644.97;;;17.68;65.33
70015;BME280;57358;51.094;6.760;2023-05-12T10:10:55;100673.88;;;17.93;65.90
70015;BME280;57358;51.094;6.760;2023-05-12T10:13:23;100692.31;;;17.95;66.70
70015;BME280;57358;51.094;6.760;2023-05-12T10:15:51;100762.59;;;18.65;67.25
70015;BME280;57358;51.094;6.760;2023-05-12T10:18:20;100707.00;;;18.83;65.50
70015;BME280;57358;51.094;6.760;2023-05-12T10:20:47;100690.09;;;18.63;66.25
70015;BME280;57358;51.094;6.760;2023-05-12T10:23:15;100644.66;;;18.76;64.60
70015;BME280;57358;51.094;6.760;2023-05-12T10:25:43;100613.75;;;19.16;62.81
70015;BME280;57358;51.094;6.760;2023-05-12T10:28:10;100562.06;;;19.47;61.22
70015;BME280;57358;51.094;6.760;2023-05-12T10:30:41;100507.88;;;19.29;60.66
70015;BME280;57358;51.094;6.760;2023-05-12T10:33:08;100609.81;;;19.98;60.88
70015;BME280;57358;51.094;6.760;2023-05-12T10:35:38;100517.97;;;19.25;60.33
70015;BME280;57358;51.094;6.760;2023-05-12T10:38:10;100539.09;;;19.07;60.68
70015;BME280;57358;51.094;6.760;2023-05-12T10:40:50;100485.31;;;18.74;60.32
70015;BME280;57358;51.094;6.760;2023-05-12T10:43:24;100458.50;;;18.27;61.44
70015;BME280;57358;51.094;6.760;2023-05-12T10:46:13;100469.13;;;19.07;58.79
70015;BME280;57358;51.094;6.760;2023-05-12T10:48:52;100589.53;;;19.38;60.84
70015;BME280;57358;51.094;6.760;2023-05-12T10:51:24;100519.22;;;19.50;58.97
70015;BME280;57358;51.094;6.760;2023-05-12T10:53:56;100565.16;;;19.52;59.36
70015;BME280;57358;51.094;6.760;2023-05-12T10:56:29;100491.50;;;19.24;58.34
70015;BME280;57358;51.094;6.760;2023-05-12T11:02:02;100439.00;;;19.16;57.52
70015;BME280;57358;51.094;6.760;2023-05-12T11:04:48;100510.25;;;19.42;58.49
70015;BME280;57358;51.094;6.760;2023-05-12T11:07:20;100424.28;;;19.31;56.71
70015;BME280;57358;51.094;6.760;2023-05-12T11:09:49;100464.50;;;19.85;56.13
70015;BME280;57358;51.094;6.760;2023-05-12T11:12:25;100499.53;;;20.46;55.75
70015;BME280;57358;51.094;6.760;2023-05-12T11:14:52;100474.50;;;20.39;55.45
70015;BME280;57358;51.094;6.760;2023-05-12T11:17:19;100510.59;;;21.15;54.32
70015;BME280;57358;51.094;6.760;2023-05-12T11:19:47;100529.91;;;21.44;53.41
70015;BME280;57358;51.094;6.760;2023-05-12T11:22:19;100442.22;;;21.58;51.66
70015;BME280;57358;51.094;6.760;2023-05-12T11:24:47;100510.50;;;21.60;52.37
70015;BME280;57358;51.094;6.760;2023-05-12T11:27:16;100442.16;;;21.05;52.16
70015;BME280;57358;51.094;6.760;2023-05-12T11:29:43;100423.97;;;21.01;51.21
70015;BME280;57358;51.094;6.760;2023-05-12T11:32:14;100491.22;;;21.12;52.13
70015;BME280;57358;51.094;6.760;2023-05-12T11:34:40;100516.53;;;20.90;52.43
70015;BME280;57358;51.094;6.760;2023-05-12T11:37:07;100634.72;;;21.46;53.71
70015;BME280;57358;51.094;6.760;2023-05-12T11:39:34;100513.06;;;21.08;52.34
70015;BME280;57358;51.094;6.760;2023-05-12T11:42:03;100464.25;;;21.16;50.94
70015;BME280;57358;51.094;6.760;2023-05-12T11:44:45;100423.91;;;20.29;52.57
70015;BME280;57358;51.094;6.760;2023-05-12T11:47:14;100598.22;;;21.19;52.77
70015;BME280;57358;51.094;6.760;2023-05-12T11:49:48;100481.66;;;20.84;51.85
70015;BME280;57358;51.094;6.760;2023-05-12T11:52:16;100501.66;;;21.60;50.04
70015;BME280;57358;51.094;6.760;2023-05-12T11:54:55;100474.47;;;21.64;50.01
70015;BME280;57358;51.094;6.760;2023-05-12T11:57:33;100533.84;;;21.84;50.25
70015;BME280;57358;51.094;6.760;2023-05-12T12:00:04;100470.47;;;21.68;49.84
70015;BME280;57358;51.094;6.760;2023-05-12T12:02:32;100551.09;;;21.10;52.39
70015;BME280;57358;51.094;6.760;2023-05-12T12:05:01;100354.31;;;19.11;53.65
70015;BME280;57358;51.094;6.760;2023-05-12T12:07:31;100636.03;;;19.63;57.18
70015;BME280;57358;51.094;6.760;2023-05-12T12:10:09;100678.06;;;19.30;58.29
70015;BME280;57358;51.094;6.760;2023-05-12T12:12:37;100715.75;;;18.74;60.36
70015;BME280;57358;51.094;6.760;2023-05-12T12:15:03;100761.09;;;18.51;61.70
70015;BME280;57358;51.094;6.760;2023-05-12T12:17:30;100765.69;;;18.49;62.33
70015;BME280;57358;51.094;6.760;2023-05-12T12:19:57;100714.72;;;18.65;60.75
70015;BME280;57358;51.094;6.760;2023-05-12T12:22:24;100863.81;;;19.46;61.46
70015;BME280;57358;51.094;6.760;2023-05-12T12:24:50;100862.94;;;19.67;61.63
70015;BME280;57358;51.094;6.760;2023-05-12T12:27:16;100757.88;;;19.40;59.43
70015;BME280;57358;51.094;6.760;2023-05-12T12:29:43;100679.94;;;18.47;60.74
70015;BME280;57358;51.094;6.760;2023-05-12T12:32:09;100866.03;;;19.10;62.84
70015;BME280;57358;51.094;6.760;2023-05-12T12:34:36;100832.47;;;18.77;62.66
70015;BME280;57358;51.094;6.760;2023-05-12T12:37:02;100838.91;;;18.74;62.86
70015;BME280;57358;51.094;6.760;2023-05-12T12:39:29;100879.03;;;18.71;63.37
70015;BME280;57358;51.094;6.760;2023-05-12T12:41:55;100733.75;;;17.75;63.89
70015;BME280;57358;51.094;6.760;2023-05-12T12:44:22;100892.75;;;18.56;64.02
70015;BME280;57358;51.094;6.760;2023-05-12T12:46:48;100929.88;;;18.78;65.03
70015;BME280;57358;51.094;6.760;2023-05-12T12:49:14;100911.03;;;18.81;64.35
70015;BME280;57358;51.094;6.760;2023-05-12T12:51:41;100878.00;;;18.63;63.62
70015;BME280;57358;51.094;6.760;2023-05-12T12:54:12;100928.81;;;18.81;64.30